createdAt,value
2023-04-05T00:02:33.347Z,100892.00
2023-04-05T00:07:34.910Z,100893.03
2023-04-05T00:12:36.235Z,100888.69
2023-04-05T00:17:37.937Z,100875.78
2023-04-05T00:22:41.859Z,100878.25
2023-04-05T00:27:44.479Z,100889.00
2023-04-05T00:32:48.058Z,100883.47
2023-04-05T00:37:49.393Z,100879.19
2023-04-05T00:42:50.859Z,100877.94
2023-04-05T00:47:52.319Z,100876.28
2023-04-05T00:52:54.082Z,100872.38
2023-04-05T00:57:59.014Z,100871.97
2023-04-05T01:03:03.452Z,100860.00
2023-04-05T01:08:15.966Z,100854.00
2023-04-05T01:13:17.690Z,100857.59
2023-04-05T01:18:19.303Z,100838.97
2023-04-05T01:23:32.996Z,100848.28
2023-04-05T01:29:25.452Z,100842.91
2023-04-05T01:34:56.252Z,100844.47
2023-04-05T01:39:58.881Z,100828.56
2023-04-05T01:45:00.272Z,100839.28
2023-04-05T01:50:01.695Z,100836.13
2023-04-05T01:55:03.563Z,100827.50
2023-04-05T02:00:05.262Z,100824.41
2023-04-05T02:05:07.140Z,100837.88
2023-04-05T02:10:08.994Z,100827.88
2023-04-05T02:15:10.647Z,100822.25
2023-04-05T02:20:14.480Z,100831.97
2023-04-05T02:25:16.450Z,100826.13
2023-04-05T02:30:17.875Z,100831.25
2023-04-05T02:35:21.143Z,100833.28
2023-04-05T02:40:23.116Z,100823.03
2023-04-05T02:45:25.002Z,100827.84
2023-04-05T02:50:26.489Z,100828.00
2023-04-05T02:55:30.921Z,100829.06
2023-04-05T03:00:32.516Z,100820.53
2023-04-05T03:05:33.881Z,100822.25
2023-04-05T03:10:37.155Z,100813.84
2023-04-05T03:15:38.708Z,100805.00
2023-04-05T03:20:40.394Z,100806.41
2023-04-05T03:25:42.104Z,100799.56
2023-04-05T03:30:43.792Z,100800.19
2023-04-05T03:35:45.484Z,100797.06
2023-04-05T03:40:46.876Z,100804.38
2023-04-05T03:45:48.422Z,100809.47
2023-04-05T03:50:50.441Z,100804.41
2023-04-05T03:55:54.028Z,100804.63
2023-04-05T04:00:56.762Z,100799.44
2023-04-05T04:05:58.275Z,100793.41
2023-04-05T04:11:00.022Z,100786.03
2023-04-05T04:16:01.420Z,100787.19
2023-04-05T04:21:07.092Z,100791.69
2023-04-05T04:26:09.624Z,100796.31
2023-04-05T04:31:14.264Z,100793.09
2023-04-05T04:36:18.008Z,100786.34
2023-04-05T04:41:22.956Z,100793.63
2023-04-05T04:46:30.558Z,100799.94
2023-04-05T04:51:33.128Z,100791.41
2023-04-05T04:56:34.753Z,100789.47
2023-04-05T05:01:40.807Z,100796.75
2023-04-05T05:06:42.178Z,100795.31
2023-04-05T05:11:43.608Z,100799.88
2023-04-05T05:16:45.821Z,100799.16
2023-04-05T05:21:49.636Z,100803.50
2023-04-05T05:26:51.226Z,100787.38
2023-04-05T05:31:52.558Z,100800.28
2023-04-05T05:36:57.505Z,100806.00
2023-04-05T05:41:58.886Z,100798.88
2023-04-05T05:47:00.431Z,100803.28
2023-04-05T05:52:03.545Z,100804.94
2023-04-05T05:57:04.981Z,100818.69
2023-04-05T06:02:06.370Z,100810.34
2023-04-05T06:07:07.729Z,100815.41
2023-04-05T06:12:09.331Z,100825.81
2023-04-05T06:17:10.853Z,100821.59
2023-04-05T06:22:12.213Z,100813.31
2023-04-05T06:27:14.651Z,100814.47
2023-04-05T06:32:16.042Z,100820.53
2023-04-05T06:37:17.462Z,100808.09
2023-04-05T06:42:18.799Z,100819.13
2023-04-05T06:47:20.282Z,100802.34
2023-04-05T06:52:21.636Z,100815.38
2023-04-05T06:57:22.963Z,100811.75
2023-04-05T07:02:24.520Z,100810.16
2023-04-05T07:07:26.069Z,100814.44
2023-04-05T07:12:27.529Z,100807.19
2023-04-05T07:17:29.012Z,100801.28
2023-04-05T07:22:30.361Z,100784.22
2023-04-05T07:27:31.890Z,100800.91
2023-04-05T07:32:34.548Z,100806.03
2023-04-05T07:37:36.130Z,100803.28
2023-04-05T07:42:37.692Z,100805.75
2023-04-05T07:47:39.795Z,100800.09
2023-04-05T07:52:41.940Z,100796.47
2023-04-05T07:57:43.330Z,100798.28
2023-04-05T08:02:44.879Z,100792.97
2023-04-05T08:07:46.235Z,100802.44
2023-04-05T08:12:47.565Z,100796.03
2023-04-05T08:17:48.901Z,100796.03
2023-04-05T08:22:50.275Z,100789.41
2023-04-05T08:27:51.617Z,100779.22
2023-04-05T08:32:53.467Z,100775.19
2023-04-05T08:37:54.806Z,100782.34
2023-04-05T08:43:07.909Z,100773.91
2023-04-05T08:48:09.315Z,100785.47
2023-04-05T08:53:10.822Z,100782.56
2023-04-05T08:58:14.418Z,100757.69
2023-04-05T09:03:24.068Z,100773.88
2023-04-05T09:08:25.556Z,100764.50
2023-04-05T09:13:26.831Z,100763.00
2023-04-05T09:18:28.297Z,100769.06
2023-04-05T09:23:29.687Z,100756.84
2023-04-05T09:28:42.476Z,100764.84
2023-04-05T09:33:43.965Z,100761.34
2023-04-05T09:38:46.571Z,100761.78
2023-04-05T09:43:47.865Z,100761.97
2023-04-05T09:48:51.027Z,100754.50
2023-04-05T09:54:06.589Z,100757.00
2023-04-05T09:59:13.472Z,100754.38
2023-04-05T10:04:15.052Z,100759.22
2023-04-05T10:09:17.983Z,100752.53
2023-04-05T10:14:19.784Z,100738.44
2023-04-05T10:19:29.062Z,100749.13
2023-04-05T10:24:54.200Z,100733.69
2023-04-05T10:30:08.780Z,100730.56
2023-04-05T10:35:17.138Z,100724.50
2023-04-05T10:40:24.236Z,100725.44
2023-04-05T10:45:27.378Z,100719.59
2023-04-05T10:50:29.646Z,100713.63
2023-04-05T10:55:31.600Z,100695.16
2023-04-05T11:00:33.987Z,100694.66
2023-04-05T11:05:37.385Z,100697.75
2023-04-05T11:10:39.662Z,100695.00
2023-04-05T11:15:41.356Z,100685.53
2023-04-05T11:20:52.568Z,100684.50
2023-04-05T11:25:57.557Z,100674.66
2023-04-05T11:31:13.155Z,100672.06
2023-04-05T11:36:29.780Z,100662.19
2023-04-05T11:41:33.633Z,100660.91
2023-04-05T11:46:35.756Z,100653.34
2023-04-05T11:51:37.642Z,100648.41
2023-04-05T11:56:38.961Z,100635.91
2023-04-05T12:01:44.909Z,100629.34
2023-04-05T12:06:46.206Z,100625.50
2023-04-05T12:11:55.122Z,100618.00
2023-04-05T12:16:56.537Z,100613.69
2023-04-05T12:21:57.994Z,100615.78
2023-04-05T12:27:01.192Z,100611.25
2023-04-05T12:32:04.347Z,100607.19
2023-04-05T12:37:05.892Z,100603.00
2023-04-05T12:42:07.225Z,100591.44
2023-04-05T12:47:10.978Z,100580.38
2023-04-05T12:52:19.863Z,100571.31
2023-04-05T12:57:31.950Z,100569.63
2023-04-05T13:02:33.393Z,100566.91
2023-04-05T13:07:34.752Z,100565.75
2023-04-05T13:12:36.535Z,100561.19
2023-04-05T13:17:38.108Z,100549.47
2023-04-05T13:22:39.753Z,100551.41
2023-04-05T13:27:41.249Z,100553.50
2023-04-05T13:32:42.657Z,100540.22
2023-04-05T13:37:44.117Z,100535.94
2023-04-05T13:42:45.874Z,100533.13
2023-04-05T13:47:47.248Z,100529.69
2023-04-05T13:52:48.783Z,100531.97
2023-04-05T13:57:50.110Z,100526.31
2023-04-05T14:02:51.905Z,100526.50
2023-04-05T14:07:53.267Z,100518.47
2023-04-05T14:12:54.592Z,100509.06
2023-04-05T14:17:55.985Z,100504.97
2023-04-05T14:22:58.689Z,100509.72
2023-04-05T14:28:01.668Z,100500.13
2023-04-05T14:33:03.231Z,100480.28
2023-04-05T14:38:04.665Z,100491.03
2023-04-05T14:43:06.275Z,100476.56
2023-04-05T14:48:07.765Z,100463.13
2023-04-05T14:53:10.398Z,100475.44
2023-04-05T14:58:14.191Z,100468.66
2023-04-05T15:03:16.351Z,100475.94
2023-04-05T15:08:17.814Z,100475.56
2023-04-05T15:13:20.742Z,100469.34
2023-04-05T15:18:22.116Z,100464.44
2023-04-05T15:23:23.788Z,100466.16
2023-04-05T15:28:25.184Z,100461.38
2023-04-05T15:33:26.568Z,100444.47
2023-04-05T15:38:28.253Z,100450.09
2023-04-05T15:43:31.679Z,100457.97
2023-04-05T15:48:33.060Z,100446.16
2023-04-05T15:53:34.446Z,100456.00
2023-04-05T15:58:37.253Z,100457.09
2023-04-05T16:03:39.085Z,100458.75
2023-04-05T16:08:40.616Z,100443.09
2023-04-05T16:13:42.086Z,100448.81
2023-04-05T16:18:43.501Z,100438.47
2023-04-05T16:23:46.451Z,100441.13
2023-04-05T16:28:48.100Z,100446.41
2023-04-05T16:33:49.649Z,100432.44
2023-04-05T16:38:51.857Z,100440.44
2023-04-05T16:43:53.301Z,100432.00
2023-04-05T16:48:54.743Z,100430.84
2023-04-05T16:53:56.155Z,100430.19
2023-04-05T16:58:58.292Z,100430.97
2023-04-05T17:04:00.078Z,100431.06
2023-04-05T17:09:01.845Z,100426.94
2023-04-05T17:14:03.474Z,100436.72
2023-04-05T17:19:05.300Z,100423.44
2023-04-05T17:24:07.420Z,100441.63
2023-04-05T17:29:08.805Z,100435.34
2023-04-05T17:34:13.266Z,100436.09
2023-04-05T17:39:16.085Z,100438.31
2023-04-05T17:44:17.570Z,100424.75
2023-04-05T17:49:19.455Z,100442.72
2023-04-05T17:54:20.982Z,100442.50
2023-04-05T17:59:22.995Z,100438.06
2023-04-05T18:04:25.590Z,100443.38
2023-04-05T18:09:27.974Z,100436.72
2023-04-05T18:14:30.227Z,100434.91
2023-04-05T18:19:32.243Z,100437.81
2023-04-05T18:24:33.797Z,100440.22
2023-04-05T18:29:37.973Z,100447.03
2023-04-05T18:34:39.427Z,100444.50
2023-04-05T18:39:41.136Z,100443.16
2023-04-05T18:44:42.593Z,100445.44
2023-04-05T18:49:44.022Z,100453.66
2023-04-05T18:54:45.444Z,100453.66
2023-04-05T18:59:46.812Z,100460.41
2023-04-05T19:04:48.380Z,100474.06
2023-04-05T19:09:49.727Z,100469.44
2023-04-05T19:14:51.758Z,100461.28
2023-04-05T19:19:53.167Z,100467.81
2023-04-05T19:24:54.725Z,100479.53
2023-04-05T19:29:56.927Z,100483.59
2023-04-05T19:34:59.531Z,100472.59
2023-04-05T19:40:01.634Z,100488.53
2023-04-05T19:45:07.968Z,100488.97
2023-04-05T19:50:46.889Z,100481.78
2023-04-05T19:55:48.442Z,100479.38
2023-04-05T20:00:53.664Z,100472.31
2023-04-05T20:06:06.027Z,100486.19
2023-04-05T20:11:17.290Z,100487.91
2023-04-05T20:16:25.598Z,100484.75
2023-04-05T20:21:27.192Z,100483.03
2023-04-05T20:26:33.276Z,100469.03
2023-04-05T20:31:39.316Z,100483.41
2023-04-05T20:36:51.788Z,100472.25
2023-04-05T20:41:53.840Z,100467.88
2023-04-05T20:46:57.201Z,100471.41
2023-04-05T20:51:58.796Z,100466.31
2023-04-05T20:57:00.205Z,100472.94
2023-04-05T21:02:01.701Z,100464.63
2023-04-05T21:07:03.895Z,100464.03
2023-04-05T21:12:05.898Z,100461.38
2023-04-05T21:17:07.242Z,100465.47
2023-04-05T21:22:08.647Z,100463.91
2023-04-05T21:27:09.996Z,100463.25
2023-04-05T21:32:11.450Z,100455.00
2023-04-05T21:37:12.816Z,100458.06
2023-04-05T21:42:14.331Z,100475.47
2023-04-05T21:47:17.422Z,100474.78
2023-04-05T21:52:18.832Z,100468.69
2023-04-05T21:57:20.228Z,100468.13
2023-04-05T22:02:21.774Z,100474.31
2023-04-05T22:07:23.363Z,100474.75
2023-04-05T22:12:24.998Z,100471.56
2023-04-05T22:17:26.507Z,100465.50
2023-04-05T22:22:27.860Z,100466.66
2023-04-05T22:27:30.113Z,100473.53
2023-04-05T22:32:31.643Z,100471.69
2023-04-05T22:37:36.327Z,100462.06
2023-04-05T22:42:38.888Z,100474.59
2023-04-05T22:47:40.390Z,100478.38
2023-04-05T22:52:41.817Z,100474.78
2023-04-05T22:57:43.909Z,100475.38
2023-04-05T23:02:45.376Z,100471.72
2023-04-05T23:07:47.109Z,100464.47
2023-04-05T23:12:49.079Z,100466.25
2023-04-05T23:17:50.681Z,100465.03
2023-04-05T23:22:52.112Z,100464.03
2023-04-05T23:27:56.312Z,100469.72
2023-04-05T23:32:57.795Z,100458.06
2023-04-05T23:37:59.220Z,100464.88
2023-04-05T23:43:00.767Z,100469.31
2023-04-05T23:48:02.503Z,100459.97
2023-04-05T23:53:04.015Z,100471.69
2023-04-05T23:58:05.897Z,100461.84
